Time;durP1;ratioP1;P1;durP2;ratioP2;P2;SDS_P1;SDS_P2;PMS_P1;PMS_P2;Temp;Humidity;BMP_temperature;BMP_pressure;BME280_temperature;BME280_humidity;BME280_pressure;Samples;Min_cycle;Max_cycle;Signal;HPM_P1;HPM_P2
2022/09/16 00:05:05;;;;;;;1.17;1.08;;;;;;;;;;12591487;28;20028;-79
2022/09/16 00:11:06;;;;;;;1.85;1.30;;;;;;;;;;12590488;28;20028;-78
2022/09/16 00:17:08;;;;;;;;;;;;;;;;;;12591328;28;20040;-79
2022/09/16 00:23:10;;;;;;;1.60;1.20;;;;;;;;;;12589337;28;19928;-79
2022/09/16 00:29:12;;;;;;;2.53;1.88;;;;;;;;;;12590391;28;20381;-78
2022/09/16 00:35:13;;;;;;;1.63;1.17;;;;;;;;;;12590514;28;20052;-80
2022/09/16 00:41:17;;;;;;;2.08;1.27;;;;;;;;;;12589213;28;20036;-79
2022/09/16 00:47:28;;;;;;;1.60;1.50;;;;;;;;;;12588236;28;20061;-80
2022/09/16 00:53:36;;;;;;;2.08;1.50;;;;;;;;;;12588636;28;20051;-80
2022/09/16 00:59:41;;;;;;;1.10;1.00;;;;;;;;;;12588602;28;20397;-80
2022/09/16 01:05:44;;;;;;;2.28;1.52;;;;;;;;;;12588833;28;20032;-79
2022/09/16 01:11:45;;;;;;;1.33;1.23;;;;;;;;;;12589094;28;20036;-79
2022/09/16 01:17:47;;;;;;;2.35;1.40;;;;;;;;;;12590024;28;20048;-79
2022/09/16 01:23:49;;;;;;;;;;;;;;;;;;12588415;28;20033;-79
2022/09/16 01:29:54;;;;;;;1.93;1.13;;;;;;;;;;12587616;28;19908;-79
2022/09/16 01:36:00;;;;;;;1.75;1.50;;;;;;;;;;12587591;28;20043;-79
2022/09/16 01:42:01;;;;;;;1.95;1.70;;;;;;;;;;12570892;28;20036;-79
2022/09/16 01:48:03;;;;;;;1.98;1.20;;;;;;;;;;12594097;28;20052;-79
2022/09/16 01:54:11;;;;;;;2.30;1.63;;;;;;;;;;12595458;28;20036;-79
2022/09/16 02:00:14;;;;;;;2.08;1.70;;;;;;;;;;12596827;28;20663;-78
2022/09/16 02:06:15;;;;;;;;;;;;;;;;;;12578913;28;20025;-79
2022/09/16 02:12:21;;;;;;;2.50;1.80;;;;;;;;;;12594985;28;20078;-78
2022/09/16 02:18:26;;;;;;;2.95;1.40;;;;;;;;;;12596694;28;20049;-78
2022/09/16 02:24:30;;;;;;;3.15;1.40;;;;;;;;;;12598787;28;20028;-79
2022/09/16 02:30:32;;;;;;;2.08;1.48;;;;;;;;;;12597273;28;20043;-79
2022/09/16 02:36:34;;;;;;;2.88;1.60;;;;;;;;;;12598557;28;20032;-79
2022/09/16 02:42:36;;;;;;;1.85;1.25;;;;;;;;;;12597306;28;20048;-80
2022/09/16 02:48:38;;;;;;;;;;;;;;;;;;12596533;28;20056;-80
2022/09/16 02:54:47;;;;;;;1.58;1.48;;;;;;;;;;12597457;28;19913;-79
2022/09/16 03:00:50;;;;;;;2.70;1.30;;;;;;;;;;12596214;28;20066;-80
2022/09/16 03:06:52;;;;;;;2.55;1.50;;;;;;;;;;12596861;28;20409;-80
2022/09/16 03:13:00;;;;;;;2.08;1.30;;;;;;;;;;12594763;28;20034;-79
2022/09/16 03:19:02;;;;;;;2.25;1.40;;;;;;;;;;12595532;28;20499;-80
2022/09/16 03:25:07;;;;;;;2.15;1.40;;;;;;;;;;12595573;28;20032;-79
2022/09/16 03:31:11;;;;;;;3.70;1.40;;;;;;;;;;12593874;28;20039;-79
2022/09/16 03:37:14;;;;;;;3.72;1.50;;;;;;;;;;12595348;28;20037;-79
2022/09/16 03:43:17;;;;;;;2.63;1.30;;;;;;;;;;12595237;28;20037;-78
2022/09/16 03:49:18;;;;;;;2.78;1.60;;;;;;;;;;12593335;28;20049;-79
2022/09/16 03:55:20;;;;;;;1.77;1.60;;;;;;;;;;12593840;28;20428;-79
2022/09/16 04:01:22;;;;;;;3.25;1.52;;;;;;;;;;12594755;28;20048;-79
2022/09/16 04:07:24;;;;;;;4.32;1.60;;;;;;;;;;12592710;28;20051;-80
2022/09/16 04:13:28;;;;;;;2.92;1.73;;;;;;;;;;12593402;28;20396;-79
2022/09/16 04:19:30;;;;;;;2.50;1.50;;;;;;;;;;12592806;28;20252;-79
2022/09/16 04:25:32;;;;;;;1.70;1.23;;;;;;;;;;12592920;28;20037;-79
2022/09/16 04:31:34;;;;;;;;;;;;;;;;;;12593900;28;20475;-79
2022/09/16 04:37:35;;;;;;;2.78;1.17;;;;;;;;;;12591930;28;20373;-79
2022/09/16 04:43:37;;;;;;;2.13;1.30;;;;;;;;;;12592795;28;20033;-79
2022/09/16 04:49:39;;;;;;;2.60;0.93;;;;;;;;;;12591475;28;20052;-79
2022/09/16 04:55:41;;;;;;;1.45;1.00;;;;;;;;;;12592246;28;20405;-79
2022/09/16 05:01:44;;;;;;;1.58;0.85;;;;;;;;;;12592096;28;20048;-79
2022/09/16 05:07:46;;;;;;;1.38;0.80;;;;;;;;;;12574065;28;20044;-79
2022/09/16 05:13:48;;;;;;;2.55;1.00;;;;;;;;;;12591995;28;20039;-79
2022/09/16 05:19:50;;;;;;;1.15;0.82;;;;;;;;;;12594262;28;20047;-80
2022/09/16 05:25:51;;;;;;;1.48;0.93;;;;;;;;;;12601753;28;20370;-78
2022/09/16 05:31:53;;;;;;;1.40;0.80;;;;;;;;;;12599060;28;20044;-78
2022/09/16 05:37:55;;;;;;;1.90;0.90;;;;;;;;;;12599464;28;20044;-79
2022/09/16 05:44:00;;;;;;;1.85;1.05;;;;;;;;;;12561442;28;20079;-79
2022/09/16 05:50:02;;;;;;;3.65;1.60;;;;;;;;;;12560157;28;20429;-78
2022/09/16 05:56:05;;;;;;;2.38;1.08;;;;;;;;;;12565660;28;20047;-78
2022/09/16 06:02:08;;;;;;;2.28;1.40;;;;;;;;;;12569441;28;20033;-78
2022/09/16 06:08:10;;;;;;;2.60;1.35;;;;;;;;;;12575225;28;20068;-78
2022/09/16 06:14:12;;;;;;;;;;;;;;;;;;12564460;28;20397;-77
2022/09/16 06:20:14;;;;;;;2.83;1.33;;;;;;;;;;12563486;28;20394;-77
2022/09/16 06:26:18;;;;;;;2.55;1.60;;;;;;;;;;12561029;28;20036;-78
2022/09/16 06:32:19;;;;;;;2.15;1.40;;;;;;;;;;12557294;28;20051;-79
2022/09/16 06:38:21;;;;;;;3.30;1.23;;;;;;;;;;12557757;28;20033;-79
2022/09/16 06:44:23;;;;;;;2.85;1.42;;;;;;;;;;12559296;28;20028;-79
2022/09/16 06:50:25;;;;;;;3.13;1.60;;;;;;;;;;12564698;28;20061;-79
2022/09/16 06:56:26;;;;;;;2.38;1.30;;;;;;;;;;12565460;28;20032;-79
2022/09/16 07:02:30;;;;;;;1.60;0.90;;;;;;;;;;12578572;28;20040;-82
2022/09/16 07:08:32;;;;;;;1.48;1.25;;;;;;;;;;12582471;28;20037;-79
2022/09/16 07:14:34;;;;;;;2.33;1.15;;;;;;;;;;12558020;28;20033;-78
2022/09/16 07:20:36;;;;;;;1.10;1.00;;;;;;;;;;12569486;28;20047;-79
2022/09/16 07:26:38;;;;;;;5.05;1.13;;;;;;;;;;12567842;28;20028;-79
2022/09/16 07:32:40;;;;;;;1.80;1.15;;;;;;;;;;12558080;28;20530;-79
2022/09/16 07:38:42;;;;;;;3.22;0.80;;;;;;;;;;12577620;28;20497;-79
2022/09/16 07:44:44;;;;;;;2.15;1.10;;;;;;;;;;12573225;28;20040;-79
2022/09/16 07:50:53;;;;;;;1.85;1.10;;;;;;;;;;12558399;28;20064;-79
2022/09/16 07:56:56;;;;;;;1.50;0.82;;;;;;;;;;12554457;28;20505;-79
2022/09/16 08:02:59;;;;;;;1.52;0.70;;;;;;;;;;12574521;28;20039;-78
2022/09/16 08:09:01;;;;;;;2.45;0.60;;;;;;;;;;12561613;28;20037;-80
2022/09/16 08:15:03;;;;;;;;;;;;;;;;;;12552162;28;20045;-80
2022/09/16 08:21:08;;;;;;;2.90;1.17;;;;;;;;;;12550683;28;19929;-80
2022/09/16 08:27:10;;;;;;;4.47;1.33;;;;;;;;;;12548177;28;20025;-80
2022/09/16 08:33:12;;;;;;;4.05;1.20;;;;;;;;;;12554951;28;20456;-79
2022/09/16 08:39:14;;;;;;;1.92;1.00;;;;;;;;;;12557230;28;20496;-77
2022/09/16 08:45:25;;;;;;;2.03;0.90;;;;;;;;;;12548273;28;20386;-80
2022/09/16 08:51:27;;;;;;;3.15;1.25;;;;;;;;;;12543984;28;20045;-78
2022/09/16 08:57:31;;;;;;;5.78;1.60;;;;;;;;;;12565167;28;20028;-78
2022/09/16 09:03:36;;;;;;;4.28;1.60;;;;;;;;;;12567060;28;20048;-80
2022/09/16 09:09:50;;;;;;;2.50;1.48;;;;;;;;;;12556732;28;20025;-80
2022/09/16 09:16:15;;;;;;;3.22;1.45;;;;;;;;;;12589348;28;20504;-80
2022/09/16 09:22:20;;;;;;;3.17;1.35;;;;;;;;;;12561840;28;20118;-78
2022/09/16 09:28:28;;;;;;;3.45;1.27;;;;;;;;;;12576406;28;20044;-78
2022/09/16 09:34:48;;;;;;;3.97;1.42;;;;;;;;;;12563442;28;20029;-79
2022/09/16 09:40:57;;;;;;;3.67;1.03;;;;;;;;;;12570908;28;20044;-79
2022/09/16 09:47:02;;;;;;;3.22;1.30;;;;;;;;;;12559528;28;20049;-81
2022/09/16 09:53:11;;;;;;;3.70;1.10;;;;;;;;;;12567658;28;20037;-81
2022/09/16 09:59:31;;;;;;;3.50;1.48;;;;;;;;;;12595008;28;20397;-81
2022/09/16 10:05:33;;;;;;;2.65;1.25;;;;;;;;;;12550197;28;20509;-80
2022/09/16 10:11:44;;;;;;;3.92;1.67;;;;;;;;;;12570376;28;20029;-80
2022/09/16 10:17:51;;;;;;;2.72;1.60;;;;;;;;;;12559010;28;20045;-79
2022/09/16 10:23:54;;;;;;;3.08;1.35;;;;;;;;;;12564160;28;20036;-80
2022/09/16 10:30:07;;;;;;;1.92;1.00;;;;;;;;;;12553483;28;20028;-80
2022/09/16 10:36:31;;;;;;;3.08;1.27;;;;;;;;;;12548469;28;20045;-79
2022/09/16 10:42:33;;;;;;;2.75;0.93;;;;;;;;;;12548354;28;20040;-77
2022/09/16 10:48:35;;;;;;;1.85;0.82;;;;;;;;;;12549238;28;20405;-77
2022/09/16 10:54:37;;;;;;;1.33;1.00;;;;;;;;;;12552065;28;20033;-79
2022/09/16 11:00:53;;;;;;;2.83;1.13;;;;;;;;;;12530230;28;20384;-77
2022/09/16 11:07:15;;;;;;;4.80;1.52;;;;;;;;;;12546365;28;20037;-77
2022/09/16 11:13:20;;;;;;;1.83;1.02;;;;;;;;;;12546751;28;20028;-78
2022/09/16 11:19:22;;;;;;;2.25;1.05;;;;;;;;;;12545958;28;20059;-78
2022/09/16 11:25:23;;;;;;;2.55;1.48;;;;;;;;;;12542693;28;20036;-76
2022/09/16 11:31:31;;;;;;;2.05;1.20;;;;;;;;;;12594595;28;20033;-80
2022/09/16 11:37:39;;;;;;;2.67;1.55;;;;;;;;;;12594332;28;20393;-79
2022/09/16 11:43:43;;;;;;;2.60;1.55;;;;;;;;;;12594765;28;20249;-80
2022/09/16 11:50:04;;;;;;;2.50;1.17;;;;;;;;;;12594906;28;20057;-79
2022/09/16 11:56:15;;;;;;;1.92;1.20;;;;;;;;;;12594053;28;20496;-79
2022/09/16 12:02:24;;;;;;;3.10;1.57;;;;;;;;;;12593927;28;20388;-81
2022/09/16 12:08:44;;;;;;;3.63;1.35;;;;;;;;;;12592653;28;20515;-81
2022/09/16 12:14:50;;;;;;;2.10;1.08;;;;;;;;;;12592829;28;20376;-81
2022/09/16 12:20:54;;;;;;;3.33;1.55;;;;;;;;;;12576145;28;20485;-79
2022/09/16 12:27:01;;;;;;;2.45;1.35;;;;;;;;;;12592365;28;20028;-80
2022/09/16 12:33:14;;;;;;;3.13;1.20;;;;;;;;;;12591974;28;20032;-79
2022/09/16 12:39:16;;;;;;;2.92;1.13;;;;;;;;;;12591788;28;20040;-79
2022/09/16 12:45:43;;;;;;;3.00;1.48;;;;;;;;;;12591534;28;20385;-79
2022/09/16 12:51:45;;;;;;;4.03;1.35;;;;;;;;;;12591365;28;20061;-79
2022/09/16 12:57:57;;;;;;;2.33;0.90;;;;;;;;;;12592298;28;20048;-79
2022/09/16 13:04:03;;;;;;;2.47;0.88;;;;;;;;;;12591356;28;20041;-79
2022/09/16 13:10:15;;;;;;;2.75;1.48;;;;;;;;;;12592510;28;20029;-80
2022/09/16 13:16:27;;;;;;;2.45;1.00;;;;;;;;;;12583115;28;20044;-80
2022/09/16 13:22:31;;;;;;;3.65;1.55;;;;;;;;;;12591794;28;20041;-79
2022/09/16 13:28:34;;;;;;;3.22;1.25;;;;;;;;;;12590448;28;20481;-80
2022/09/16 13:34:35;;;;;;;1.63;1.00;;;;;;;;;;12590569;28;20037;-81
2022/09/16 13:40:37;;;;;;;1.45;0.95;;;;;;;;;;12593195;28;20052;-81
2022/09/16 13:46:39;;;;;;;1.83;0.82;;;;;;;;;;12600103;28;20040;-81
2022/09/16 13:52:41;;;;;;;2.22;0.98;;;;;;;;;;12599203;28;20037;-81
2022/09/16 13:58:56;;;;;;;1.70;0.90;;;;;;;;;;12598356;28;20048;-81
2022/09/16 14:05:13;;;;;;;2.90;0.93;;;;;;;;;;12599781;28;20039;-80
2022/09/16 14:11:26;;;;;;;2.65;0.95;;;;;;;;;;12597979;28;20037;-79
2022/09/16 14:17:33;;;;;;;1.50;0.70;;;;;;;;;;12597623;28;20044;-79
2022/09/16 14:23:35;;;;;;;1.15;0.70;;;;;;;;;;12598775;28;20489;-79
2022/09/16 14:29:38;;;;;;;1.90;0.70;;;;;;;;;;12598353;28;20029;-79
2022/09/16 14:35:40;;;;;;;1.48;0.90;;;;;;;;;;12597497;28;20405;-80
2022/09/16 14:41:49;;;;;;;1.27;0.60;;;;;;;;;;12598008;28;20044;-81
2022/09/16 14:47:51;;;;;;;1.90;0.80;;;;;;;;;;12596096;28;20053;-80
2022/09/16 14:53:58;;;;;;;2.33;0.73;;;;;;;;;;12579526;28;20032;-81
2022/09/16 15:00:03;;;;;;;1.95;0.63;;;;;;;;;;12579429;28;20037;-82
2022/09/16 15:06:09;;;;;;;1.10;0.55;;;;;;;;;;12596998;28;20041;-80
2022/09/16 15:12:19;;;;;;;2.25;0.75;;;;;;;;;;12597605;28;20051;-81
2022/09/16 15:18:23;;;;;;;1.37;0.47;;;;;;;;;;12597874;28;20381;-79
2022/09/16 15:24:27;;;;;;;2.20;0.68;;;;;;;;;;12595746;28;20071;-81
2022/09/16 15:30:29;;;;;;;1.63;0.60;;;;;;;;;;12596677;28;20033;-81
2022/09/16 15:36:33;;;;;;;1.58;0.52;;;;;;;;;;12594583;28;20605;-79
2022/09/16 15:42:34;;;;;;;2.38;0.80;;;;;;;;;;12594853;28;20044;-79
2022/09/16 15:48:42;;;;;;;3.42;0.80;;;;;;;;;;12593460;28;20064;-80
2022/09/16 15:54:46;;;;;;;1.83;0.60;;;;;;;;;;12594263;28;20037;-80
2022/09/16 16:01:07;;;;;;;2.28;0.95;;;;;;;;;;12594086;28;20037;-80
2022/09/16 16:07:09;;;;;;;2.17;0.90;;;;;;;;;;12592555;28;20389;-82
2022/09/16 16:13:10;;;;;;;2.47;1.10;;;;;;;;;;12592011;28;20032;-82
2022/09/16 16:19:13;;;;;;;1.80;0.60;;;;;;;;;;12592439;28;20045;-82
2022/09/16 16:25:15;;;;;;;1.40;0.77;;;;;;;;;;12593220;28;20044;-81
2022/09/16 16:31:18;;;;;;;1.95;0.70;;;;;;;;;;12592179;28;20028;-80
2022/09/16 16:37:20;;;;;;;0.77;0.50;;;;;;;;;;12592882;28;20036;-82
2022/09/16 16:43:22;;;;;;;1.98;0.63;;;;;;;;;;12599389;28;20044;-82
2022/09/16 16:49:24;;;;;;;2.28;0.70;;;;;;;;;;12590288;28;20048;-82
2022/09/16 16:55:26;;;;;;;2.83;1.17;;;;;;;;;;12592214;28;20119;-82
2022/09/16 17:01:29;;;;;;;1.75;0.73;;;;;;;;;;12591898;28;20036;-80
2022/09/16 17:07:31;;;;;;;2.42;0.65;;;;;;;;;;12590826;28;20043;-82
2022/09/16 17:13:33;;;;;;;1.58;0.70;;;;;;;;;;12574499;28;20385;-82
2022/09/16 17:19:35;;;;;;;2.72;0.80;;;;;;;;;;12602209;28;20045;-82
2022/09/16 17:25:37;;;;;;;1.95;0.50;;;;;;;;;;12599902;28;20060;-81
2022/09/16 17:31:40;;;;;;;1.45;1.05;;;;;;;;;;12600225;28;20508;-81
2022/09/16 17:37:41;;;;;;;2.97;0.73;;;;;;;;;;12599701;28;20377;-82
2022/09/16 17:43:44;;;;;;;3.88;1.00;;;;;;;;;;12582533;28;20053;-82
2022/09/16 17:49:46;;;;;;;1.55;0.70;;;;;;;;;;12599637;28;20040;-82
2022/09/16 17:55:49;;;;;;;2.60;1.35;;;;;;;;;;12598270;28;20035;-82
2022/09/16 18:01:50;;;;;;;3.60;1.48;;;;;;;;;;12598560;28;20040;-80
2022/09/16 18:07:52;;;;;;;;;;;;;;;;;;12600011;28;20499;-79
2022/09/16 18:13:54;;;;;;;4.53;1.30;;;;;;;;;;12598269;28;19908;-78
2022/09/16 18:19:58;;;;;;;7.88;2.97;;;;;;;;;;12599929;28;20036;-79
2022/09/16 18:26:07;;;;;;;3.65;1.73;;;;;;;;;;12597930;28;20382;-78
2022/09/16 18:32:09;;;;;;;1.70;1.02;;;;;;;;;;12597347;28;20040;-78
2022/09/16 18:38:11;;;;;;;1.88;1.08;;;;;;;;;;12597736;28;20036;-78
2022/09/16 18:44:15;;;;;;;2.47;0.98;;;;;;;;;;12597313;28;20044;-78
2022/09/16 18:50:17;;;;;;;1.63;0.50;;;;;;;;;;12595809;28;20048;-79
2022/09/16 18:56:18;;;;;;;;;;;;;;;;;;12598031;28;20037;-78
2022/09/16 19:02:21;;;;;;;2.33;0.70;;;;;;;;;;12596152;28;19927;-80
2022/09/16 19:08:22;;;;;;;2.50;0.55;;;;;;;;;;12594910;28;20039;-80
2022/09/16 19:14:26;;;;;;;1.20;0.50;;;;;;;;;;12596001;28;20413;-80
2022/09/16 19:20:27;;;;;;;0.30;0.30;;;;;;;;;;12597362;28;20066;-80
2022/09/16 19:26:30;;;;;;;0.88;0.40;;;;;;;;;;12594539;28;20384;-80
2022/09/16 19:32:33;;;;;;;0.22;0.20;;;;;;;;;;12594539;28;20035;-78
2022/09/16 19:38:35;;;;;;;0.30;0.20;;;;;;;;;;12594347;28;20051;-79
2022/09/16 19:44:37;;;;;;;0.47;0.30;;;;;;;;;;12595059;28;20505;-79
2022/09/16 19:50:39;;;;;;;0.22;0.22;;;;;;;;;;12593420;28;20053;-79
2022/09/16 19:56:41;;;;;;;0.60;0.32;;;;;;;;;;12593958;28;20032;-79
2022/09/16 20:02:42;;;;;;;;;;;;;;;;;;12595020;28;20067;-79
2022/09/16 20:08:45;;;;;;;2.05;0.57;;;;;;;;;;12594380;28;19908;-79
2022/09/16 20:14:47;;;;;;;1.08;0.50;;;;;;;;;;12593816;28;20055;-80
2022/09/16 20:20:49;;;;;;;1.05;0.40;;;;;;;;;;12594669;28;20048;-80
2022/09/16 20:26:52;;;;;;;0.98;0.60;;;;;;;;;;12593696;28;20029;-79
2022/09/16 20:32:54;;;;;;;0.47;0.25;;;;;;;;;;12592924;28;20036;-78
2022/09/16 20:38:58;;;;;;;0.65;0.13;;;;;;;;;;12592631;28;20033;-78
2022/09/16 20:45:00;;;;;;;0.43;0.30;;;;;;;;;;12593148;28;20028;-78
2022/09/16 20:51:03;;;;;;;2.28;0.28;;;;;;;;;;12591523;28;20056;-78
2022/09/16 20:57:05;;;;;;;1.38;0.30;;;;;;;;;;12592759;28;20047;-78
2022/09/16 21:03:10;;;;;;;1.30;0.40;;;;;;;;;;12592342;28;20047;-78
2022/09/16 21:09:14;;;;;;;0.40;0.30;;;;;;;;;;12592006;28;20481;-78
2022/09/16 21:15:16;;;;;;;0.95;0.30;;;;;;;;;;12591955;28;20032;-79
2022/09/16 21:21:19;;;;;;;1.38;0.20;;;;;;;;;;12593377;28;20036;-78
2022/09/16 21:27:20;;;;;;;0.55;0.20;;;;;;;;;;12592103;28;20032;-78
2022/09/16 21:33:23;;;;;;;0.45;0.13;;;;;;;;;;12592202;28;20484;-79
2022/09/16 21:39:25;;;;;;;0.95;0.20;;;;;;;;;;12592355;28;20040;-79
2022/09/16 21:45:27;;;;;;;0.15;0.10;;;;;;;;;;12591564;28;20055;-78
2022/09/16 21:51:36;;;;;;;1.38;0.20;;;;;;;;;;12592136;28;20055;-79
2022/09/16 21:57:38;;;;;;;1.08;0.20;;;;;;;;;;12592700;28;20035;-78
2022/09/16 22:03:40;;;;;;;0.40;0.10;;;;;;;;;;12596638;28;20044;-78
2022/09/16 22:09:42;;;;;;;0.40;0.15;;;;;;;;;;12599670;28;20047;-78
2022/09/16 22:15:51;;;;;;;0.95;0.25;;;;;;;;;;12598853;28;20029;-78
2022/09/16 22:21:53;;;;;;;0.25;0.10;;;;;;;;;;12597402;28;20063;-78
2022/09/16 22:27:54;;;;;;;0.30;0.17;;;;;;;;;;12598752;28;20032;-79
2022/09/16 22:33:58;;;;;;;0.60;0.20;;;;;;;;;;12598210;28;20029;-80
2022/09/16 22:39:59;;;;;;;0.52;0.20;;;;;;;;;;12597180;28;20044;-80
2022/09/16 22:46:05;;;;;;;1.20;0.10;;;;;;;;;;12596573;28;20033;-80
2022/09/16 22:52:07;;;;;;;0.20;0.20;;;;;;;;;;12597066;28;20298;-80
2022/09/16 22:58:08;;;;;;;0.30;0.10;;;;;;;;;;12596361;28;20421;-80
2022/09/16 23:04:10;;;;;;;0.07;0.00;;;;;;;;;;12597093;28;20302;-79
2022/09/16 23:10:12;;;;;;;0.13;0.10;;;;;;;;;;12597593;28;20035;-79
2022/09/16 23:16:16;;;;;;;0.07;0.00;;;;;;;;;;12594999;28;20040;-79
2022/09/16 23:22:17;;;;;;;0.10;0.10;;;;;;;;;;12596173;28;20040;-79
2022/09/16 23:28:19;;;;;;;0.10;0.10;;;;;;;;;;12595018;28;20032;-79
2022/09/16 23:34:21;;;;;;;0.10;0.10;;;;;;;;;;12594475;28;20127;-78
2022/09/16 23:40:26;;;;;;;0.30;0.20;;;;;;;;;;12595524;28;20302;-78
2022/09/16 23:46:29;;;;;;;0.15;0.10;;;;;;;;;;12593293;28;20385;-78
2022/09/16 23:52:31;;;;;;;0.10;0.10;;;;;;;;;;12594596;28;20470;-78
2022/09/16 23:58:34;;;;;;;0.68;0.10;;;;;;;;;;12594549;28;20044;-78
